createdAt,value
2023-01-19T00:01:42.665Z,25.10
2023-01-19T00:04:42.673Z,33.30
2023-01-19T00:07:43.878Z,23.00
2023-01-19T00:10:44.735Z,26.20
2023-01-19T00:13:45.779Z,26.00
2023-01-19T00:16:45.751Z,24.30
2023-01-19T00:19:45.715Z,36.90
2023-01-19T00:22:47.836Z,27.30
2023-01-19T00:25:49.779Z,27.90
2023-01-19T00:28:49.758Z,34.90
2023-01-19T00:31:49.879Z,25.70
2023-01-19T00:34:56.782Z,24.10
2023-01-19T00:37:58.763Z,23.80
2023-01-19T00:40:58.785Z,31.10
2023-01-19T00:43:58.785Z,26.50
2023-01-19T00:46:58.756Z,25.00
2023-01-19T00:49:58.781Z,29.50
2023-01-19T00:52:59.062Z,23.30
2023-01-19T00:55:59.886Z,28.90
2023-01-19T00:58:59.824Z,25.80
2023-01-19T05:01:02.000Z,24.90
2023-01-19T05:04:02.948Z,23.10
2023-01-19T05:07:05.005Z,20.80
2023-01-19T05:10:06.371Z,22.00
2023-01-19T05:13:07.083Z,27.10
2023-01-19T05:16:08.165Z,18.10
2023-01-19T05:19:09.161Z,26.80
2023-01-19T05:22:12.407Z,24.80
2023-01-19T05:25:34.024Z,22.40
2023-01-19T05:28:35.036Z,23.90
2023-01-19T05:31:36.184Z,21.50
2023-01-19T05:34:37.128Z,25.80
2023-01-19T05:37:40.018Z,18.60
2023-01-19T05:40:41.110Z,22.80
2023-01-19T05:43:42.022Z,25.80
2023-01-19T05:46:43.259Z,20.30
2023-01-19T05:49:44.112Z,20.70
2023-01-19T05:52:45.166Z,25.50
2023-01-19T05:55:46.052Z,18.40
2023-01-19T05:58:47.082Z,23.60
2023-01-19T06:01:49.128Z,21.80
2023-01-19T06:04:52.272Z,16.00
2023-01-19T06:07:53.518Z,22.70
2023-01-19T06:10:54.301Z,25.80
2023-01-19T06:13:58.164Z,18.60
2023-01-19T06:17:02.124Z,16.70
2023-01-19T06:20:03.309Z,21.40
2023-01-19T06:23:04.285Z,25.30
2023-01-19T06:26:05.099Z,25.90
2023-01-19T06:29:06.119Z,24.80
2023-01-19T06:32:07.082Z,28.20
2023-01-19T06:35:09.137Z,25.40
2023-01-19T06:38:10.108Z,27.40
2023-01-19T06:41:12.129Z,21.80
2023-01-19T06:44:15.535Z,25.00
2023-01-19T06:47:18.192Z,22.30
2023-01-19T06:50:20.133Z,32.20
2023-01-19T06:53:21.145Z,28.20
2023-01-19T06:56:22.164Z,22.50
2023-01-19T06:59:25.194Z,22.90
2023-01-19T07:02:29.315Z,19.90
2023-01-19T07:05:30.246Z,18.00
2023-01-19T07:08:31.201Z,13.50
2023-01-19T07:11:32.442Z,15.80
2023-01-19T07:14:40.415Z,18.30
2023-01-19T07:17:41.149Z,12.50
2023-01-19T07:20:42.210Z,49.10
2023-01-19T07:23:45.206Z,32.10
2023-01-19T07:26:46.427Z,54.90
2023-01-19T07:29:48.256Z,23.50
2023-01-19T07:32:49.253Z,39.00
2023-01-19T07:35:50.225Z,22.30
2023-01-19T07:38:51.220Z,29.90
2023-01-19T07:41:56.461Z,25.60
2023-01-19T07:44:59.253Z,29.80
2023-01-19T07:48:01.145Z,19.30
2023-01-19T07:51:02.222Z,19.90
2023-01-19T07:54:06.460Z,17.40
2023-01-19T07:57:08.229Z,21.90
2023-01-19T08:00:10.304Z,20.20
2023-01-19T08:03:13.297Z,16.30
2023-01-19T08:06:14.281Z,23.20
2023-01-19T08:09:15.299Z,28.10
2023-01-19T08:12:16.269Z,23.50
2023-01-19T08:15:17.291Z,33.20
2023-01-19T08:18:18.321Z,36.80
2023-01-19T08:21:19.307Z,39.60
2023-01-19T08:24:20.396Z,36.80
2023-01-19T08:27:21.295Z,31.60
2023-01-19T08:30:23.343Z,22.10
2023-01-19T08:33:25.334Z,21.40
2023-01-19T08:36:26.310Z,18.90
2023-01-19T08:39:27.347Z,8.80
2023-01-19T08:42:28.310Z,8.50
2023-01-19T08:45:29.355Z,11.60
2023-01-19T08:48:31.309Z,16.30
2023-01-19T08:51:32.342Z,14.30
2023-01-19T08:54:33.513Z,7.90
2023-01-19T08:57:34.329Z,9.10
2023-01-19T09:00:37.351Z,12.00
2023-01-19T09:03:38.387Z,12.20
2023-01-19T09:06:39.363Z,11.90
2023-01-19T09:09:33.439Z,11.60
2023-01-19T09:12:20.399Z,13.40
2023-01-19T09:15:22.465Z,20.60
2023-01-19T09:18:25.386Z,12.20
2023-01-19T09:21:19.485Z,12.10
2023-01-19T09:24:22.127Z,13.00
2023-01-19T09:27:22.376Z,10.90
2023-01-19T09:30:24.661Z,12.50
2023-01-19T09:33:27.396Z,12.30
2023-01-19T09:36:28.459Z,10.10
2023-01-19T09:39:29.427Z,11.00
2023-01-19T09:42:33.461Z,11.60
2023-01-19T09:45:52.468Z,13.60
2023-01-19T09:48:57.597Z,11.80
2023-01-19T09:52:01.479Z,13.10
2023-01-19T09:55:09.452Z,11.90
2023-01-19T09:58:10.474Z,12.30
2023-01-19T12:12:45.896Z,31.30
2023-01-19T12:15:50.964Z,38.70
2023-01-19T12:18:56.879Z,36.40
2023-01-19T12:21:57.902Z,46.10
2023-01-19T12:25:27.903Z,51.60
2023-01-19T12:28:28.912Z,44.90
2023-01-19T12:31:32.004Z,36.10
2023-01-19T12:34:42.954Z,39.70
2023-01-19T12:37:50.958Z,65.20
2023-01-19T12:40:55.958Z,46.80
2023-01-19T12:43:57.029Z,43.70
2023-01-19T12:46:56.921Z,45.80
2023-01-19T12:49:57.960Z,40.90
2023-01-19T12:53:08.964Z,47.10
2023-01-19T12:56:12.962Z,34.30
2023-01-19T12:59:12.948Z,48.50
2023-01-19T13:02:30.956Z,43.00
2023-01-19T13:05:34.977Z,47.70
2023-01-19T13:08:36.969Z,49.30
2023-01-19T13:11:36.984Z,47.40
2023-01-19T13:14:50.012Z,48.00
2023-01-19T13:18:02.954Z,45.00
2023-01-19T13:21:11.972Z,50.20
2023-01-19T13:24:21.004Z,51.20
2023-01-19T13:27:22.983Z,45.80
2023-01-19T13:30:30.076Z,37.50
2023-01-19T13:33:32.978Z,43.20
2023-01-19T13:36:43.980Z,48.20
2023-01-19T13:39:57.020Z,45.70
2023-01-19T13:42:58.106Z,50.10
2023-01-19T13:46:03.087Z,51.30
2023-01-19T13:49:34.086Z,32.00
2023-01-19T13:52:37.048Z,45.70
2023-01-19T13:55:39.075Z,39.10
2023-01-19T13:58:40.052Z,49.60
2023-01-19T14:01:40.203Z,47.10
2023-01-19T14:04:44.127Z,39.90
2023-01-19T14:07:47.382Z,37.20
2023-01-19T14:10:48.132Z,45.90
2023-01-19T14:13:51.058Z,49.70
2023-01-19T14:16:54.154Z,56.80
2023-01-19T14:20:02.157Z,56.30
2023-01-19T14:23:02.083Z,37.30
2023-01-19T14:26:02.148Z,51.20
2023-01-19T14:29:02.076Z,48.20
2023-01-19T14:32:22.161Z,47.10
2023-01-19T14:35:22.083Z,45.80
2023-01-19T14:38:27.114Z,49.90
2023-01-19T14:41:36.208Z,49.50
2023-01-19T14:44:45.146Z,51.70
2023-01-19T14:47:45.198Z,41.50
2023-01-19T14:51:02.751Z,56.10
2023-01-19T14:54:06.225Z,40.80
2023-01-19T14:57:07.137Z,37.00
2023-01-19T15:00:08.295Z,33.30
2023-01-19T15:03:08.175Z,47.40
2023-01-19T15:06:08.162Z,48.00
2023-01-19T15:09:10.290Z,47.60
2023-01-19T15:12:18.511Z,39.60
2023-01-19T15:15:26.268Z,34.40
2023-01-19T15:18:33.276Z,35.70
2023-01-19T15:21:35.199Z,42.90
2023-01-19T15:24:37.263Z,35.90
2023-01-19T15:27:37.181Z,34.10
2023-01-19T15:30:40.253Z,32.20
2023-01-19T15:33:42.225Z,45.10
2023-01-19T15:36:42.234Z,41.20
2023-01-19T15:39:44.250Z,34.60
2023-01-19T15:42:44.251Z,37.90
2023-01-19T15:46:03.312Z,35.30
2023-01-19T15:49:04.253Z,35.70
2023-01-19T15:52:05.226Z,38.10
2023-01-19T15:55:05.415Z,44.80
2023-01-19T15:58:08.255Z,43.40
2023-01-19T16:01:11.354Z,35.40
2023-01-19T16:04:12.303Z,31.10
2023-01-19T16:07:12.357Z,28.40
2023-01-19T16:10:15.307Z,36.80
2023-01-19T16:13:16.393Z,39.40
2023-01-19T16:16:21.328Z,31.20
2023-01-19T16:19:22.495Z,35.40
2023-01-19T16:22:24.332Z,26.70
2023-01-19T16:25:26.340Z,38.80
2023-01-19T16:28:27.798Z,35.90
2023-01-19T16:31:28.333Z,36.90
2023-01-19T16:34:29.281Z,41.50
2023-01-19T16:37:30.312Z,35.30
2023-01-19T16:40:30.272Z,33.10
2023-01-19T16:43:30.364Z,29.00
2023-01-19T16:46:41.420Z,34.30
2023-01-19T16:49:42.338Z,33.00
2023-01-19T16:52:42.326Z,33.40
2023-01-19T16:55:42.319Z,30.30
2023-01-19T16:58:44.423Z,43.30
2023-01-19T17:01:44.432Z,37.70
2023-01-19T17:04:44.515Z,38.30
2023-01-19T17:07:45.396Z,38.80
2023-01-19T17:10:49.384Z,30.30
2023-01-19T17:13:49.360Z,33.70
2023-01-19T17:16:49.491Z,39.50
2023-01-19T17:19:51.412Z,33.50
2023-01-19T17:22:51.395Z,35.20
2023-01-19T17:25:51.418Z,32.50
2023-01-19T17:28:51.363Z,28.30
2023-01-19T17:31:51.502Z,38.90
2023-01-19T17:34:52.403Z,39.20
2023-01-19T17:37:52.485Z,31.00
2023-01-19T17:40:52.432Z,26.20
2023-01-19T17:43:52.446Z,28.20
2023-01-19T17:46:52.466Z,28.40
2023-01-19T17:50:04.632Z,27.10
2023-01-19T17:53:12.540Z,28.60
2023-01-19T17:56:16.514Z,27.40
2023-01-19T17:59:16.479Z,32.00
2023-01-19T18:02:16.561Z,23.50
2023-01-19T18:05:18.524Z,26.40
2023-01-19T18:08:20.487Z,33.60
2023-01-19T18:11:20.546Z,26.50
2023-01-19T18:14:20.452Z,30.60
2023-01-19T18:17:20.474Z,30.70
2023-01-19T18:20:20.509Z,28.10
2023-01-19T18:23:20.527Z,26.90
2023-01-19T18:26:27.602Z,27.20
2023-01-19T18:29:27.958Z,28.20
2023-01-19T18:32:28.516Z,25.90
2023-01-19T18:35:28.573Z,23.10
2023-01-19T18:38:31.779Z,23.20
2023-01-19T18:41:32.666Z,27.70
2023-01-19T18:44:32.644Z,25.40
2023-01-19T18:47:34.827Z,33.50
2023-01-19T18:50:35.531Z,18.00
2023-01-19T18:53:35.555Z,25.10
2023-01-19T18:56:35.541Z,28.00
2023-01-19T18:59:35.620Z,32.00
2023-01-19T19:02:35.586Z,30.60
2023-01-19T20:28:30.732Z,31.00
2023-01-19T20:31:33.842Z,26.00
2023-01-19T20:34:36.749Z,32.90
2023-01-19T20:37:37.735Z,23.80
2023-01-19T20:40:38.668Z,25.80
2023-01-19T20:43:39.733Z,23.30
2023-01-19T20:46:40.796Z,34.00
2023-01-19T20:49:41.745Z,28.60
2023-01-19T20:52:43.256Z,28.00
2023-01-19T20:55:43.770Z,25.20
2023-01-19T20:58:49.853Z,29.00
2023-01-19T21:01:50.902Z,28.10
2023-01-19T21:04:51.813Z,28.80
2023-01-19T21:07:52.777Z,28.90
2023-01-19T21:11:01.247Z,30.50
2023-01-19T21:14:02.803Z,24.60
2023-01-19T21:17:04.773Z,35.40
2023-01-19T21:20:05.870Z,23.00
2023-01-19T21:23:06.818Z,26.60
2023-01-19T21:26:12.881Z,33.50
2023-01-19T21:29:13.827Z,32.80
2023-01-19T21:32:17.794Z,34.50
2023-01-19T21:35:18.855Z,22.50
2023-01-19T21:38:19.853Z,26.20
2023-01-19T21:41:23.049Z,22.60
2023-01-19T21:44:26.858Z,30.90
2023-01-19T21:47:30.186Z,26.30
2023-01-19T21:50:31.814Z,28.70
2023-01-19T21:53:35.919Z,30.50
2023-01-19T21:56:51.091Z,22.50
2023-01-19T21:59:57.448Z,27.00
2023-01-19T22:03:05.597Z,25.20
2023-01-19T22:06:10.612Z,28.30
2023-01-19T22:09:14.887Z,24.70
2023-01-19T22:12:10.987Z,29.60
2023-01-19T22:15:12.065Z,27.20
2023-01-19T22:18:12.953Z,36.20
2023-01-19T22:21:23.907Z,31.80
2023-01-19T22:24:24.933Z,25.00
2023-01-19T22:27:29.177Z,25.70
2023-01-19T22:30:29.992Z,39.40
2023-01-19T22:33:37.129Z,42.80
2023-01-19T22:36:42.989Z,25.60
2023-01-19T22:39:44.030Z,31.30
2023-01-19T22:42:44.956Z,31.00
2023-01-19T22:45:45.966Z,38.20
2023-01-19T22:48:47.006Z,31.40
2023-01-19T22:51:47.978Z,34.80
2023-01-19T22:54:49.026Z,36.30
2023-01-19T22:57:49.938Z,25.80
2023-01-19T23:00:52.142Z,29.80
2023-01-19T23:03:53.061Z,34.60
2023-01-19T23:06:56.956Z,28.00
2023-01-19T23:09:57.993Z,27.60
2023-01-19T23:12:59.008Z,31.80
2023-01-19T23:16:00.064Z,27.90
2023-01-19T23:19:01.198Z,23.10
2023-01-19T23:22:04.984Z,32.00
2023-01-19T23:24:59.098Z,29.00
2023-01-19T23:28:00.008Z,38.70
2023-01-19T23:31:01.110Z,26.80
2023-01-19T23:34:06.011Z,37.00
2023-01-19T23:37:07.033Z,28.70
2023-01-19T23:40:09.049Z,27.50
2023-01-19T23:43:10.125Z,34.50
2023-01-19T23:46:11.091Z,32.00
2023-01-19T23:49:12.093Z,32.20
2023-01-19T23:52:13.078Z,36.60
2023-01-19T23:55:15.329Z,25.90
2023-01-19T23:58:16.134Z,25.10
